Time;durP1;ratioP1;P1;durP2;ratioP2;P2;SDS_P1;SDS_P2;PMS_P1;PMS_P2;Temp;Humidity;BMP_temperature;BMP_pressure;BME280_temperature;BME280_humidity;BME280_pressure;Samples;Min_cycle;Max_cycle;Signal;HPM_P1;HPM_P2
2021/08/15 00:02:13;;;;;;;13.90;8.65;;;;;;;18.44;96.39;98899.06;4955193;28;20042;-73
2021/08/15 00:04:38;;;;;;;15.07;8.65;;;;;;;18.37;95.90;98888.31;4959459;28;20097;-72
2021/08/15 00:07:04;;;;;;;13.77;8.48;;;;;;;18.29;95.75;98868.75;4969492;28;20029;-72
2021/08/15 00:09:29;;;;;;;15.25;9.07;;;;;;;18.30;95.84;98863.00;4972234;28;20037;-73
2021/08/15 00:11:54;;;;;;;11.00;8.30;;;;;;;18.34;95.33;98869.66;4971755;28;20135;-72
2021/08/15 00:14:20;;;;;;;13.50;8.23;;;;;;;18.32;95.15;98876.44;4971370;28;20058;-73
2021/08/15 00:16:46;;;;;;;12.88;8.40;;;;;;;18.44;95.25;98879.88;4970826;28;20031;-72
2021/08/15 00:19:11;;;;;;;11.00;7.88;;;;;;;18.39;94.79;98863.38;4972809;28;20081;-73
2021/08/15 00:21:37;;;;;;;10.75;8.00;;;;;;;18.43;94.89;98880.97;4970877;28;20027;-72
2021/08/15 00:24:05;;;;;;;12.80;8.45;;;;;;;18.19;94.30;98844.78;4972562;28;20038;-72
2021/08/15 00:26:32;;;;;;;11.73;8.45;;;;;;;18.33;94.83;98870.69;4973060;28;20038;-72
2021/08/15 00:28:57;;;;;;;15.40;8.80;;;;;;;18.28;95.30;98867.06;4971569;28;20034;-73
2021/08/15 00:31:26;;;;;;;11.05;7.82;;;;;;;18.02;95.50;98827.53;4971693;28;20503;-72
2021/08/15 00:33:51;;;;;;;11.50;8.80;;;;;;;17.97;95.35;98828.28;4969641;28;20039;-72
2021/08/15 00:36:17;;;;;;;12.70;8.23;;;;;;;17.98;96.17;98834.59;4971215;28;20034;-72
2021/08/15 00:38:42;;;;;;;12.95;7.75;;;;;;;18.09;95.93;98844.63;4974894;28;20456;-73
2021/08/15 00:41:07;;;;;;;11.25;7.82;;;;;;;17.85;95.31;98808.41;4976257;28;20067;-72
2021/08/15 00:43:33;;;;;;;13.48;8.07;;;;;;;18.00;95.67;98840.63;4976233;28;20531;-71
2021/08/15 00:45:58;;;;;;;16.42;9.40;;;;;;;18.02;96.54;98847.53;4967332;28;20473;-72
2021/08/15 00:48:24;;;;;;;13.88;9.43;;;;;;;18.05;96.27;98854.41;4965724;28;20026;-73
2021/08/15 00:50:49;;;;;;;13.15;9.48;;;;;;;18.00;96.69;98841.50;4975931;28;20038;-72
2021/08/15 00:53:15;;;;;;;10.57;7.75;;;;;;;17.95;96.38;98847.72;4976186;28;20049;-73
2021/08/15 00:55:41;;;;;;;13.82;8.55;;;;;;;17.88;95.87;98835.28;4975338;28;20051;-72
2021/08/15 00:58:07;;;;;;;16.00;8.75;;;;;;;17.77;96.34;98827.97;4974847;28;20026;-73
2021/08/15 01:00:36;;;;;;;15.98;9.48;;;;;;;17.73;97.15;98817.50;4972846;28;20109;-72
2021/08/15 01:03:01;;;;;;;15.57;8.15;;;;;;;17.79;97.09;98834.88;4973683;28;20041;-71
2021/08/15 01:05:27;;;;;;;13.32;7.72;;;;;;;17.63;97.59;98827.44;4974390;28;20117;-72
2021/08/15 01:07:52;;;;;;;12.93;8.75;;;;;;;17.51;97.42;98806.47;4973721;28;20026;-72
2021/08/15 01:10:18;;;;;;;11.10;8.40;;;;;;;17.72;98.05;98829.53;4972879;28;20034;-72
2021/08/15 01:12:45;;;;;;;16.52;8.90;;;;;;;17.67;98.31;98823.97;4974625;28;20488;-72
2021/08/15 01:15:11;;;;;;;13.90;8.45;;;;;;;17.73;97.18;98833.09;4966230;28;20393;-73
2021/08/15 01:17:41;;;;;;;10.65;7.78;;;;;;;17.66;95.59;98833.25;4970006;28;20023;-72
2021/08/15 01:20:08;;;;;;;14.52;7.88;;;;;;;17.48;96.34;98803.41;4975126;28;20110;-72
2021/08/15 01:22:39;;;;;;;13.65;8.73;;;;;;;17.60;97.79;98833.41;4975444;28;20030;-73
2021/08/15 01:25:06;;;;;;;15.38;7.80;;;;;;;17.52;97.92;98815.50;4975214;28;20058;-72
2021/08/15 01:27:40;;;;;;;14.07;9.23;;;;;;;17.49;98.28;98821.47;4973297;28;20030;-73
2021/08/15 01:30:07;;;;;;;12.23;8.95;;;;;;;17.50;98.36;98817.66;4958645;28;20038;-73
2021/08/15 01:32:32;;;;;;;12.50;8.98;;;;;;;17.43;98.00;98806.88;4975581;28;20023;-72
2021/08/15 01:35:00;;;;;;;17.25;9.73;;;;;;;17.53;98.27;98831.69;4957795;28;20038;-72
2021/08/15 01:37:26;;;;;;;16.40;9.55;;;;;;;17.34;98.53;98796.59;4959129;28;20059;-72
2021/08/15 01:39:52;;;;;;;14.27;9.07;;;;;;;17.46;98.07;98811.03;4975302;28;20034;-72
2021/08/15 01:42:17;;;;;;;13.98;8.68;;;;;;;17.53;97.25;98806.25;4971273;28;20059;-73
2021/08/15 01:44:43;;;;;;;13.48;8.98;;;;;;;17.45;97.00;98792.97;4971565;28;20046;-73
2021/08/15 01:47:08;;;;;;;11.23;8.35;;;;;;;17.39;96.61;98777.53;4961196;28;20037;-73
2021/08/15 01:49:34;;;;;;;12.75;8.32;;;;;;;17.50;96.87;98795.78;4974886;28;20026;-73
2021/08/15 01:51:59;;;;;;;12.98;8.82;;;;;;;17.41;97.18;98789.91;4974929;28;20023;-72
2021/08/15 01:54:24;;;;;;;15.38;8.95;;;;;;;17.49;97.50;98805.88;4975012;28;20421;-73
2021/08/15 01:56:49;;;;;;;13.95;8.60;;;;;;;17.35;97.09;98803.75;4970658;28;20110;-73
2021/08/15 01:59:15;;;;;;;13.32;8.20;;;;;;;17.25;97.53;98791.53;4973649;28;20388;-72
2021/08/15 02:01:40;;;;;;;17.23;8.70;;;;;;;17.24;98.24;98806.31;4974139;28;20500;-73
2021/08/15 02:04:06;;;;;;;11.98;8.38;;;;;;;17.15;98.19;98804.22;4974308;28;20031;-73
2021/08/15 02:06:31;;;;;;;17.35;8.60;;;;;;;17.08;98.63;98798.88;4973389;28;20473;-72
2021/08/15 02:08:56;;;;;;;13.05;9.15;;;;;;;17.15;99.25;98815.97;4974825;28;20034;-73
2021/08/15 02:11:21;;;;;;;15.73;9.02;;;;;;;17.16;99.47;98820.38;4963410;28;20030;-72
2021/08/15 02:13:47;;;;;;;13.85;9.00;;;;;;;17.02;99.93;98791.66;4955463;28;20648;-73
2021/08/15 02:16:14;;;;;;;15.50;9.32;;;;;;;17.24;100.00;98814.50;4962352;28;20038;-73
2021/08/15 02:18:40;;;;;;;12.63;8.52;;;;;;;17.36;100.00;98808.13;4973891;28;20034;-72
2021/08/15 02:21:05;;;;;;;17.45;9.30;;;;;;;17.38;99.10;98811.44;4974479;28;20054;-73
2021/08/15 02:23:30;;;;;;;18.20;9.40;;;;;;;17.20;97.98;98793.38;4970790;28;20485;-71
2021/08/15 02:25:56;;;;;;;11.35;8.43;;;;;;;17.09;98.25;98784.97;4958626;28;20038;-73
2021/08/15 02:28:21;;;;;;;12.27;8.35;;;;;;;17.24;98.53;98813.69;4967586;28;20034;-73
2021/08/15 02:30:46;;;;;;;11.50;8.88;;;;;;;17.10;98.90;98794.00;4974205;28;20035;-73
2021/08/15 02:33:12;;;;;;;15.38;9.18;;;;;;;17.05;98.53;98791.19;4973742;28;20031;-72
2021/08/15 02:35:37;;;;;;;15.10;8.45;;;;;;;17.20;98.65;98807.03;4974295;28;20409;-73
2021/08/15 02:38:03;;;;;;;14.85;8.95;;;;;;;17.06;97.87;98795.59;4968195;28;20065;-72
2021/08/15 02:40:28;;;;;;;12.05;8.32;;;;;;;17.07;97.59;98791.75;4957323;28;20050;-73
2021/08/15 02:42:55;;;;;;;12.02;9.23;;;;;;;17.11;98.27;98803.03;4961741;28;20035;-72
2021/08/15 02:45:22;;;;;;;13.60;7.95;;;;;;;16.82;98.63;98773.84;4955235;28;20034;-72
2021/08/15 02:47:48;;;;;;;12.50;8.90;;;;;;;17.08;99.04;98813.41;4962031;28;20038;-73
2021/08/15 02:50:15;;;;;;;16.23;9.15;;;;;;;17.02;99.35;98810.81;4973915;28;20038;-73
2021/08/15 02:52:41;;;;;;;10.38;8.13;;;;;;;16.93;99.00;98787.69;4962992;28;20030;-72
2021/08/15 02:55:07;;;;;;;13.05;9.07;;;;;;;16.88;100.00;98801.25;4968403;28;20031;-72
2021/08/15 02:57:33;;;;;;;13.40;9.10;;;;;;;16.99;100.00;98808.56;4971462;28;20547;-71
2021/08/15 02:59:58;;;;;;;12.10;8.88;;;;;;;16.94;100.00;98803.00;4954681;28;20035;-73
2021/08/15 03:02:24;;;;;;;19.67;9.25;;;;;;;16.83;100.00;98796.53;4966285;28;20046;-73
2021/08/15 03:04:49;;;;;;;11.85;8.85;;;;;;;16.74;100.00;98784.28;4971473;28;20093;-73
2021/08/15 03:07:19;;;;;;;13.40;8.40;;;;;;;16.97;99.94;98807.97;4961931;28;20031;-72
2021/08/15 03:09:45;;;;;;;11.23;7.97;;;;;;;16.95;98.42;98810.13;4958084;28;20117;-74
2021/08/15 03:12:11;;;;;;;14.50;8.10;;;;;;;16.97;98.22;98805.25;4973797;28;20062;-71
2021/08/15 03:14:40;;;;;;;12.38;8.40;;;;;;;16.97;97.58;98811.53;4971082;28;20065;-73
2021/08/15 03:17:07;;;;;;;12.03;8.37;;;;;;;16.86;97.50;98802.31;4971697;28;20023;-73
2021/08/15 03:19:33;;;;;;;12.07;7.97;;;;;;;16.71;97.38;98771.94;4972008;28;20113;-73
2021/08/15 03:21:58;;;;;;;16.58;8.52;;;;;;;16.84;97.61;98795.44;4966561;28;20066;-74
2021/08/15 03:24:24;;;;;;;14.80;9.20;;;;;;;16.78;98.13;98788.22;4966869;28;20033;-73
2021/08/15 03:26:49;;;;;;;17.48;8.82;;;;;;;16.86;98.54;98796.84;4973434;28;20027;-71
2021/08/15 03:29:16;;;;;;;13.05;8.70;;;;;;;16.79;98.62;98798.94;4971686;28;20115;-73
2021/08/15 03:31:43;;;;;;;16.27;8.77;;;;;;;16.63;99.16;98785.97;4973096;28;20026;-73
2021/08/15 03:34:10;;;;;;;13.77;8.02;;;;;;;16.70;99.44;98800.34;4972449;28;20023;-73
2021/08/15 03:36:35;;;;;;;11.75;8.45;;;;;;;16.61;100.00;98785.38;4954733;28;20032;-73
2021/08/15 03:39:01;;;;;;;14.70;9.20;;;;;;;16.67;100.00;98792.63;4971934;28;20030;-73
2021/08/15 03:41:26;;;;;;;20.83;9.05;;;;;;;16.68;99.72;98799.75;4972555;28;20097;-73
2021/08/15 03:43:52;;;;;;;13.88;8.77;;;;;;;16.52;99.62;98775.94;4972808;28;20103;-73
2021/08/15 03:46:17;;;;;;;12.52;8.73;;;;;;;16.56;99.40;98797.06;4971282;28;20050;-73
2021/08/15 03:48:42;;;;;;;14.73;8.35;;;;;;;16.43;99.62;98787.25;4961899;28;20055;-73
2021/08/15 03:51:08;;;;;;;17.83;8.40;;;;;;;16.38;99.02;98778.13;4957031;28;20490;-72
2021/08/15 03:53:33;;;;;;;13.48;9.20;;;;;;;16.51;100.00;98796.97;4971468;28;20027;-73
2021/08/15 03:55:58;;;;;;;18.73;9.45;;;;;;;16.36;100.00;98775.63;4971214;28;20033;-73
2021/08/15 03:58:24;;;;;;;13.98;8.93;;;;;;;16.48;100.00;98796.59;4972383;28;20030;-73
2021/08/15 04:00:49;;;;;;;14.63;8.93;;;;;;;16.35;100.00;98771.25;4967649;28;20030;-73
2021/08/15 04:03:14;;;;;;;14.65;9.57;;;;;;;16.43;100.00;98784.50;4962191;28;20034;-74
2021/08/15 04:05:40;;;;;;;13.10;8.95;;;;;;;16.58;100.00;98764.03;4976786;28;20061;-74
2021/08/15 04:08:07;;;;;;;12.52;8.52;;;;;;;16.82;99.36;98773.84;4976839;28;20083;-74
2021/08/15 04:10:32;;;;;;;11.13;7.85;;;;;;;16.71;98.25;98765.66;4976249;28;20031;-74
2021/08/15 04:12:58;;;;;;;12.40;8.05;;;;;;;16.70;97.58;98783.94;4976218;28;20035;-73
2021/08/15 04:15:23;;;;;;;14.25;8.43;;;;;;;16.70;97.63;98789.41;4965120;28;20027;-73
2021/08/15 04:17:49;;;;;;;14.00;7.90;;;;;;;16.58;97.81;98783.16;4966298;28;20177;-73
2021/08/15 04:20:14;;;;;;;11.93;9.02;;;;;;;16.55;98.81;98789.94;4977681;28;20067;-73
2021/08/15 04:22:40;;;;;;;11.65;9.23;;;;;;;16.40;100.00;98768.63;4978626;28;20081;-74
2021/08/15 04:25:06;;;;;;;14.10;8.98;;;;;;;16.47;100.00;98764.91;4977947;28;20038;-73
2021/08/15 04:27:32;;;;;;;15.45;8.75;;;;;;;16.59;99.95;98777.47;4978230;28;20038;-73
2021/08/15 04:29:57;;;;;;;20.30;9.52;;;;;;;16.61;100.00;98760.81;4970680;28;20082;-74
2021/08/15 04:32:23;;;;;;;13.50;8.32;;;;;;;16.64;98.88;98757.63;4962440;28;20034;-72
2021/08/15 04:34:48;;;;;;;12.55;8.52;;;;;;;16.67;99.17;98770.78;4975894;28;20133;-73
2021/08/15 04:37:16;;;;;;;12.57;8.07;;;;;;;16.64;98.79;98754.88;4970747;28;20035;-73
2021/08/15 04:39:41;;;;;;;14.02;8.68;;;;;;;16.88;97.65;98777.50;4975326;28;20030;-73
2021/08/15 04:42:07;;;;;;;12.10;7.70;;;;;;;16.89;98.19;98770.94;4965088;28;20469;-73
2021/08/15 04:44:32;;;;;;;12.50;7.55;;;;;;;16.90;97.69;98763.56;4966032;28;20023;-73
2021/08/15 04:46:58;;;;;;;12.75;8.40;;;;;;;16.86;97.33;98750.41;4969174;28;20648;-73
2021/08/15 04:49:23;;;;;;;14.85;7.93;;;;;;;17.05;96.58;98761.94;4976312;28;20034;-73
2021/08/15 04:51:48;;;;;;;13.75;8.27;;;;;;;17.11;95.76;98762.03;4976085;28;20023;-73
2021/08/15 04:54:14;;;;;;;12.75;7.70;;;;;;;17.25;95.47;98777.88;4976055;28;20058;-73
2021/08/15 04:56:39;;;;;;;11.95;8.60;;;;;;;17.14;94.24;98762.38;4972378;28;20102;-72
2021/08/15 04:59:04;;;;;;;10.93;7.45;;;;;;;17.30;94.47;98764.28;4962373;28;20035;-73
2021/08/15 05:01:30;;;;;;;10.90;8.02;;;;;;;17.37;94.18;98755.06;4973695;28;20027;-73
2021/08/15 05:03:55;;;;;;;13.80;7.85;;;;;;;17.49;93.46;98762.13;4975410;28;20481;-72
2021/08/15 05:06:20;;;;;;;12.57;8.95;;;;;;;17.33;94.16;98756.66;4976143;28;20392;-72
2021/08/15 05:08:46;;;;;;;14.85;9.75;;;;;;;17.44;95.43;98786.66;5475321;23;20005;-74
2021/08/15 05:11:11;;;;;;;13.13;9.80;;;;;;;17.42;95.63;98777.03;5011492;28;20100;-75
2021/08/15 05:13:36;;;;;;;12.43;9.13;;;;;;;17.48;95.76;98774.16;5001588;28;20036;-74
2021/08/15 05:16:02;;;;;;;11.73;8.73;;;;;;;17.63;95.28;98783.66;5012537;28;20522;-75
2021/08/15 05:18:28;;;;;;;12.65;9.35;;;;;;;17.64;95.06;98780.69;5015598;28;20088;-69
2021/08/15 05:20:53;;;;;;;12.38;8.60;;;;;;;17.72;95.53;98793.13;5010982;28;20034;-73
2021/08/15 05:23:20;;;;;;;12.40;8.57;;;;;;;17.82;95.14;98796.06;5025662;28;20042;-74
2021/08/15 05:25:46;;;;;;;14.88;8.80;;;;;;;18.00;94.75;98799.56;5013094;28;20017;-70
2021/08/15 05:28:12;;;;;;;12.13;8.70;;;;;;;18.20;93.69;98796.31;5001437;28;20030;-70
2021/08/15 05:30:38;;;;;;;12.90;8.90;;;;;;;18.45;92.29;98788.44;5003002;28;20080;-73
2021/08/15 05:33:03;;;;;;;11.93;8.70;;;;;;;18.75;90.75;98798.94;5002336;28;20046;-73
2021/08/15 05:35:28;;;;;;;12.98;8.93;;;;;;;18.97;89.99;98804.41;5001407;28;20022;-72
2021/08/15 05:37:54;;;;;;;15.85;9.45;;;;;;;18.97;88.86;98793.44;5003561;28;20029;-74
2021/08/15 05:40:19;;;;;;;15.05;8.50;;;;;;;19.03;88.46;98800.63;5009538;28;20587;-74
2021/08/15 05:42:46;;;;;;;11.68;8.13;;;;;;;19.15;87.51;98794.13;5005874;28;20033;-73
2021/08/15 05:45:11;;;;;;;11.55;8.45;;;;;;;19.17;87.04;98787.31;4996942;28;20038;-69
2021/08/15 05:47:37;;;;;;;14.05;8.35;;;;;;;19.17;87.70;98787.31;5013128;28;20498;-70
2021/08/15 05:50:04;;;;;;;12.73;7.75;;;;;;;19.30;87.30;98791.53;5006769;28;20026;-69
2021/08/15 05:52:30;;;;;;;12.57;7.20;;;;;;;19.58;84.58;98781.34;5002832;28;20049;-69
2021/08/15 05:54:55;;;;;;;11.05;7.28;;;;;;;19.97;80.96;98794.84;5013702;28;20055;-69
2021/08/15 05:57:20;;;;;;;11.23;7.07;;;;;;;20.33;80.03;98785.72;5005614;28;20038;-70
2021/08/15 05:59:46;;;;;;;11.00;7.25;;;;;;;20.27;79.02;98786.75;4994781;28;20105;-69
2021/08/15 06:02:11;;;;;;;9.98;7.10;;;;;;;20.64;78.67;98791.34;5011183;28;20038;-68
2021/08/15 06:04:36;;;;;;;13.70;6.97;;;;;;;20.84;77.69;98787.03;5009245;28;20022;-72
2021/08/15 06:07:02;;;;;;;14.35;7.25;;;;;;;21.20;76.68;98780.50;5012865;28;20523;-69
2021/08/15 06:09:27;;;;;;;11.55;6.53;;;;;;;21.54;75.53;98791.00;5001519;28;20034;-69
2021/08/15 06:11:53;;;;;;;14.05;7.88;;;;;;;21.59;75.61;98779.16;5006377;28;20045;-71
2021/08/15 06:14:18;;;;;;;11.40;6.85;;;;;;;22.74;72.13;98792.09;5003415;28;20471;-71
2021/08/15 06:16:43;;;;;;;8.98;6.80;;;;;;;23.71;68.40;98771.31;5000516;28;20030;-73
2021/08/15 06:19:10;;;;;;;13.75;7.13;;;;;;;25.84;60.93;98770.75;5010061;28;20037;-75
2021/08/15 06:21:35;;;;;;;12.20;6.95;;;;;;;27.64;56.05;98768.56;5013435;28;20487;-71
2021/08/15 06:24:01;;;;;;;15.43;7.10;;;;;;;28.63;51.89;98755.28;5003881;28;20021;-71
2021/08/15 06:26:26;;;;;;;10.50;7.32;;;;;;;28.71;51.24;98767.59;5002622;28;20049;-68
2021/08/15 06:28:51;;;;;;;11.70;6.85;;;;;;;29.70;49.03;98776.19;5012553;28;20033;-68
2021/08/15 06:31:18;;;;;;;10.68;6.45;;;;;;;30.78;47.00;98759.22;4995398;28;20088;-69
2021/08/15 06:33:44;;;;;;;14.95;7.30;;;;;;;29.16;50.29;98766.53;4996830;28;20057;-72
2021/08/15 06:36:09;;;;;;;13.25;7.30;;;;;;;27.54;53.82;98757.72;5007734;28;20072;-69
2021/08/15 06:38:34;;;;;;;9.43;6.53;;;;;;;27.20;54.75;98767.41;4994024;28;20037;-69
2021/08/15 06:40:59;;;;;;;9.95;6.68;;;;;;;29.66;49.40;98760.50;5009796;28;20036;-72
2021/08/15 06:43:25;;;;;;;10.20;7.05;;;;;;;31.37;44.73;98757.47;4994606;28;20060;-70
2021/08/15 06:45:50;;;;;;;9.18;6.95;;;;;;;32.45;41.98;98748.91;5008803;28;20149;-70
2021/08/15 06:48:15;;;;;;;10.50;7.45;;;;;;;32.43;41.69;98742.84;5006375;28;20068;-70
2021/08/15 06:50:41;;;;;;;9.75;7.70;;;;;;;32.51;42.20;98750.34;5000385;28;20149;-69
2021/08/15 06:53:06;;;;;;;13.13;8.15;;;;;;;32.15;42.42;98753.09;5002997;28;20376;-71
2021/08/15 06:55:32;;;;;;;13.43;8.02;;;;;;;34.13;39.29;98739.06;4999989;28;20106;-71
2021/08/15 06:57:57;;;;;;;10.45;7.63;;;;;;;35.12;37.54;98748.28;4995272;28;20399;-69
2021/08/15 07:00:22;;;;;;;14.00;8.13;;;;;;;35.46;36.68;98744.97;5006332;28;20030;-71
2021/08/15 07:02:48;;;;;;;10.13;7.43;;;;;;;35.78;36.39;98739.97;5003564;28;20044;-71
2021/08/15 07:05:14;;;;;;;12.75;8.32;;;;;;;35.78;36.14;98728.72;5010209;28;20096;-70
2021/08/15 07:07:40;;;;;;;10.43;7.72;;;;;;;35.59;36.42;98740.03;5009221;28;20025;-71
2021/08/15 07:10:06;;;;;;;11.48;7.45;;;;;;;35.35;36.21;98739.13;5000645;28;20041;-72
2021/08/15 07:12:32;;;;;;;11.30;7.22;;;;;;;35.27;36.94;98738.16;5012643;28;20030;-71
2021/08/15 07:14:57;;;;;;;10.90;8.23;;;;;;;35.52;36.57;98738.66;5012321;28;20036;-71
2021/08/15 07:17:22;;;;;;;9.70;7.45;;;;;;;36.56;34.90;98731.31;5012189;28;20435;-72
2021/08/15 07:19:48;;;;;;;10.23;7.28;;;;;;;37.14;34.26;98728.13;5015962;28;20426;-72
2021/08/15 07:22:13;;;;;;;8.88;7.38;;;;;;;36.50;34.66;98724.31;5007355;28;20460;-76
2021/08/15 07:24:39;;;;;;;9.40;7.60;;;;;;;36.52;34.14;98721.94;5012235;28;20109;-77
2021/08/15 07:27:04;;;;;;;11.07;8.10;;;;;;;35.40;36.00;98726.72;5012705;28;20018;-74
2021/08/15 07:29:30;;;;;;;10.45;7.72;;;;;;;35.66;35.27;98726.06;5004077;28;20060;-77
2021/08/15 07:31:55;;;;;;;9.68;7.30;;;;;;;34.42;37.82;98726.53;5010894;28;20103;-74
2021/08/15 07:34:20;;;;;;;10.77;7.10;;;;;;;35.50;36.13;98712.06;5002070;28;20022;-75
2021/08/15 07:36:46;;;;;;;11.38;6.82;;;;;;;36.78;33.99;98710.69;5012265;28;20042;-76
2021/08/15 07:39:12;;;;;;;7.85;6.50;;;;;;;37.00;34.00;98711.81;5011378;28;20022;-74
2021/08/15 07:41:37;;;;;;;9.13;7.20;;;;;;;36.87;34.34;98707.59;5000198;28;20029;-74
2021/08/15 07:44:04;;;;;;;10.68;7.30;;;;;;;35.87;35.32;98694.69;5005462;28;20105;-72
2021/08/15 07:46:29;;;;;;;8.95;6.88;;;;;;;37.27;32.88;98706.94;5003387;28;20026;-72
2021/08/15 07:48:56;;;;;;;10.27;7.43;;;;;;;37.05;33.34;98697.41;5004513;28;20077;-73
2021/08/15 07:51:21;;;;;;;11.05;7.47;;;;;;;37.94;33.19;98703.25;4999823;28;20038;-73
2021/08/15 07:53:46;;;;;;;11.57;8.35;;;;;;;37.73;32.88;98700.22;5003156;28;20491;-73
2021/08/15 07:56:12;;;;;;;13.20;9.32;;;;;;;37.99;32.41;98696.47;5013883;28;20034;-76
2021/08/15 07:58:37;;;;;;;10.20;8.95;;;;;;;38.21;32.51;98682.50;5015664;28;20030;-74
2021/08/15 08:01:02;;;;;;;10.13;7.97;;;;;;;39.19;31.39;98694.03;5008010;28;20025;-73
2021/08/15 08:03:28;;;;;;;13.60;8.77;;;;;;;39.34;31.12;98695.75;5000106;28;20032;-74
2021/08/15 08:05:53;;;;;;;11.90;7.97;;;;;;;39.13;31.45;98689.97;5009644;28;20105;-74
2021/08/15 08:08:18;;;;;;;10.93;8.10;;;;;;;39.68;30.11;98703.91;5008724;28;20514;-74
2021/08/15 08:10:49;;;;;;;17.83;9.05;;;;;;;39.63;30.17;98701.47;5022466;28;20137;-76
2021/08/15 08:13:14;;;;;;;10.80;7.22;;;;;;;40.16;29.58;98702.78;5004888;28;20510;-75
2021/08/15 08:15:40;;;;;;;8.68;7.78;;;;;;;40.31;29.23;98701.59;5011994;28;20034;-76
2021/08/15 08:18:07;;;;;;;10.90;7.85;;;;;;;40.47;28.50;98701.16;5011387;28;20033;-74
2021/08/15 08:20:35;;;;;;;9.93;8.23;;;;;;;40.26;30.16;98682.97;5005898;28;20092;-76
2021/08/15 08:23:04;;;;;;;10.95;8.18;;;;;;;40.54;29.36;98689.81;5012597;28;20087;-77
2021/08/15 08:25:30;;;;;;;9.73;8.27;;;;;;;40.33;29.23;98670.00;5009053;28;20026;-78
2021/08/15 08:27:55;;;;;;;9.27;8.20;;;;;;;40.41;29.81;98668.78;5014448;28;20025;-78
2021/08/15 08:30:20;;;;;;;10.88;8.38;;;;;;;39.61;30.51;98667.09;5008954;28;20025;-76
2021/08/15 08:32:46;;;;;;;8.80;6.97;;;;;;;40.29;30.06;98665.13;4998261;28;20029;-76
2021/08/15 08:35:12;;;;;;;9.85;6.85;;;;;;;40.66;29.29;98672.38;5012417;28;20423;-80
2021/08/15 08:37:37;;;;;;;9.82;7.70;;;;;;;40.10;30.22;98674.03;5013642;28;20081;-73
2021/08/15 08:40:04;;;;;;;10.05;8.30;;;;;;;38.09;32.54;98673.13;5011512;28;20040;-73
2021/08/15 08:42:31;;;;;;;11.55;7.80;;;;;;;39.67;30.96;98679.66;4992145;28;20033;-73
2021/08/15 08:45:00;;;;;;;11.52;7.88;;;;;;;39.93;30.44;98667.16;5005604;28;20030;-73
2021/08/15 08:47:28;;;;;;;10.55;6.80;;;;;;;40.35;30.67;98670.41;5008484;28;20566;-73
2021/08/15 08:49:55;;;;;;;7.43;6.68;;;;;;;40.62;30.31;98665.91;4999442;28;20030;-73
2021/08/15 08:52:23;;;;;;;10.48;7.00;;;;;;;40.93;29.74;98663.41;4999721;28;20494;-73
2021/08/15 08:54:48;;;;;;;8.27;6.18;;;;;;;40.79;28.78;98663.44;5011168;28;20064;-73
2021/08/15 08:57:14;;;;;;;7.07;5.75;;;;;;;41.54;28.26;98669.63;5011629;28;20058;-73
2021/08/15 08:59:39;;;;;;;8.02;5.97;;;;;;;42.11;28.15;98664.78;5012228;28;20033;-73
2021/08/15 09:02:04;;;;;;;10.03;6.57;;;;;;;40.35;29.28;98668.41;5001967;28;20030;-71
2021/08/15 09:04:30;;;;;;;8.65;6.38;;;;;;;40.42;29.62;98650.53;5005579;28;20280;-72
2021/08/15 09:07:01;;;;;;;8.45;6.53;;;;;;;40.83;30.20;98659.38;5012155;28;20553;-72
2021/08/15 09:09:26;;;;;;;6.30;5.68;;;;;;;40.88;29.31;98646.81;5015368;28;20117;-72
2021/08/15 09:11:58;;;;;;;9.43;5.93;;;;;;;41.35;28.09;98650.25;5014391;28;20065;-72
2021/08/15 09:14:24;;;;;;;8.07;6.25;;;;;;;40.45;29.57;98644.06;5008781;28;20288;-72
2021/08/15 09:16:58;;;;;;;6.43;5.33;;;;;;;40.98;29.08;98643.13;5009668;28;20018;-71
2021/08/15 09:19:37;;;;;;;7.80;5.65;;;;;;;40.93;28.13;98626.53;5008536;28;20292;-74
2021/08/15 09:22:19;;;;;;;7.07;5.70;;;;;;;41.13;28.30;98639.00;5008497;28;20028;-73
2021/08/15 09:24:58;;;;;;;6.35;5.40;;;;;;;41.74;27.59;98635.81;5005803;28;20037;-73
2021/08/15 09:27:25;;;;;;;8.10;6.00;;;;;;;41.66;27.15;98636.28;5007727;28;20018;-73
2021/08/15 09:30:05;;;;;;;6.18;5.57;;;;;;;42.25;26.33;98625.63;5009130;28;20030;-72
2021/08/15 09:32:30;;;;;;;8.05;5.43;;;;;;;42.69;26.54;98611.78;5004648;28;20562;-74
2021/08/15 09:35:00;;;;;;;8.13;5.90;;;;;;;42.36;26.72;98611.34;5011326;28;20029;-72
2021/08/15 09:37:34;;;;;;;8.15;5.18;;;;;;;41.92;27.15;98603.59;5011600;28;20307;-72
2021/08/15 09:40:00;;;;;;;9.13;5.20;;;;;;;42.53;26.81;98600.19;5011243;28;20396;-72
2021/08/15 09:42:45;;;;;;;6.75;5.10;;;;;;;41.33;26.90;98602.41;5009159;28;20030;-71
2021/08/15 09:45:15;;;;;;;6.93;5.50;;;;;;;41.83;27.63;98595.56;5009983;28;20050;-72
2021/08/15 09:47:42;;;;;;;6.28;5.43;;;;;;;41.31;27.85;98604.84;4998380;28;20093;-73
2021/08/15 09:50:23;;;;;;;7.72;4.97;;;;;;;42.20;27.80;98602.53;4992653;28;20516;-72
2021/08/15 09:52:49;;;;;;;5.03;4.47;;;;;;;42.95;25.72;98587.50;4992585;28;20034;-72
2021/08/15 09:55:15;;;;;;;11.15;5.57;;;;;;;42.52;25.90;98587.19;5009021;28;20033;-73
2021/08/15 09:57:40;;;;;;;6.43;5.05;;;;;;;42.88;25.53;98593.28;5008404;28;20021;-72
2021/08/15 10:00:30;;;;;;;8.52;4.93;;;;;;;41.89;26.11;98588.19;5009932;28;20133;-72
2021/08/15 10:02:55;;;;;;;5.65;4.70;;;;;;;42.13;27.10;98585.56;4993297;28;20555;-72
2021/08/15 10:05:21;;;;;;;11.13;4.75;;;;;;;42.97;26.04;98584.22;5008747;28;20120;-72
2021/08/15 10:07:46;;;;;;;6.47;5.03;;;;;;;41.85;27.53;98581.75;5010013;28;20030;-72
2021/08/15 10:10:14;;;;;;;7.88;5.20;;;;;;;39.06;30.21;98591.72;5007786;28;20030;-72
2021/08/15 10:12:39;;;;;;;8.18;5.07;;;;;;;40.24;28.56;98589.00;5009436;28;20033;-73
2021/08/15 10:15:10;;;;;;;9.55;5.10;;;;;;;40.02;28.55;98576.09;5002789;28;20101;-72
2021/08/15 10:17:37;;;;;;;7.53;5.55;;;;;;;40.39;27.95;98584.13;5002322;28;20121;-72
2021/08/15 10:20:07;;;;;;;6.10;5.22;;;;;;;41.01;27.45;98581.91;5010964;28;20034;-72
2021/08/15 10:22:34;;;;;;;8.52;4.80;;;;;;;42.40;25.62;98586.53;5010954;28;20034;-72
2021/08/15 10:25:08;;;;;;;7.18;4.57;;;;;;;41.76;26.50;98589.94;5012925;28;20108;-72
2021/08/15 10:27:45;;;;;;;6.75;5.05;;;;;;;42.62;25.19;98584.22;5012974;28;20276;-73
2021/08/15 10:30:14;;;;;;;7.38;5.43;;;;;;;41.27;27.73;98575.69;5011118;28;20021;-71
2021/08/15 10:32:54;;;;;;;7.97;4.80;;;;;;;40.66;28.11;98573.13;5010747;28;20580;-72
2021/08/15 10:35:26;;;;;;;5.75;4.90;;;;;;;40.80;27.45;98569.44;5027952;28;20034;-73
2021/08/15 10:37:59;;;;;;;9.43;5.80;;;;;;;38.31;30.00;98569.53;5009382;28;20149;-73
2021/08/15 10:40:49;;;;;;;6.35;4.70;;;;;;;40.15;27.86;98554.59;5002114;28;20026;-74
2021/08/15 10:43:20;;;;;;;7.28;5.00;;;;;;;40.99;27.49;98553.13;4988579;28;20053;-74
2021/08/15 10:46:18;;;;;;;8.57;5.07;;;;;;;41.10;26.85;98551.03;5007856;28;20041;-73
2021/08/15 10:49:02;;;;;;;8.43;4.80;;;;;;;41.69;26.56;98538.88;4997307;28;20137;-73
2021/08/15 10:51:48;;;;;;;8.13;5.40;;;;;;;40.63;28.10;98539.88;5016476;28;20025;-73
2021/08/15 10:54:28;;;;;;;8.25;4.90;;;;;;;39.73;28.88;98558.28;5003582;28;20415;-73
2021/08/15 10:57:02;;;;;;;9.63;5.50;;;;;;;39.13;29.71;98554.16;4999037;28;20029;-73
2021/08/15 10:59:34;;;;;;;7.10;4.72;;;;;;;40.16;29.69;98556.22;5007583;28;20033;-73
2021/08/15 11:02:33;;;;;;;6.30;4.80;;;;;;;41.67;28.03;98547.81;5006771;28;20060;-75
2021/08/15 11:05:00;;;;;;;5.53;4.63;;;;;;;41.28;28.69;98562.28;4999532;28;20046;-73
2021/08/15 11:07:40;;;;;;;9.77;4.68;;;;;;;39.38;31.09;98557.88;5008590;28;20037;-73
2021/08/15 11:10:10;;;;;;;7.05;5.35;;;;;;;38.43;30.94;98556.31;5005939;28;20038;-74
2021/08/15 11:12:55;;;;;;;8.00;5.28;;;;;;;38.43;31.34;98551.44;5009607;28;20030;-72
2021/08/15 11:15:22;;;;;;;9.52;5.30;;;;;;;39.50;30.54;98538.84;5007428;28;20048;-72
2021/08/15 11:18:12;;;;;;;7.07;5.63;;;;;;;38.86;31.61;98529.00;4992756;28;20040;-73
2021/08/15 11:20:45;;;;;;;10.02;5.40;;;;;;;38.83;30.47;98515.69;5003010;28;20025;-73
2021/08/15 11:23:19;;;;;;;6.72;5.43;;;;;;;37.84;32.55;98509.09;5009054;28;20032;-73
2021/08/15 11:25:46;;;;;;;7.30;4.97;;;;;;;39.06;31.61;98497.53;5009571;28;20029;-73
2021/08/15 11:28:14;;;;;;;8.75;5.40;;;;;;;39.26;30.54;98500.81;5009026;28;20028;-73